sensor_id;sensor_type;location;lat;lon;timestamp;temperature;humidity
3478;DHT22;37937;61.490;23.506;2024-02-14T00:01:48;-8.70;99.90
3478;DHT22;37937;61.490;23.506;2024-02-14T00:04:14;-8.70;99.90
3478;DHT22;37937;61.490;23.506;2024-02-14T00:06:39;-8.70;99.90
3478;DHT22;37937;61.490;23.506;2024-02-14T00:09:05;-8.70;99.90
3478;DHT22;37937;61.490;23.506;2024-02-14T00:11:32;-8.70;99.90
3478;DHT22;37937;61.490;23.506;2024-02-14T00:13:57;-8.40;99.90
3478;DHT22;37937;61.490;23.506;2024-02-14T00:16:24;-8.60;99.90
3478;DHT22;37937;61.490;23.506;2024-02-14T00:18:50;-8.70;99.90
3478;DHT22;37937;61.490;23.506;2024-02-14T00:21:16;-8.70;99.90
3478;DHT22;37937;61.490;23.506;2024-02-14T00:23:41;-8.60;99.90
3478;DHT22;37937;61.490;23.506;2024-02-14T00:26:07;-8.70;99.90
3478;DHT22;37937;61.490;23.506;2024-02-14T00:28:32;-8.70;99.90
3478;DHT22;37937;61.490;23.506;2024-02-14T00:30:58;-8.70;99.90
3478;DHT22;37937;61.490;23.506;2024-02-14T00:33:24;-8.70;99.90
3478;DHT22;37937;61.490;23.506;2024-02-14T00:35:49;-8.70;99.90
3478;DHT22;37937;61.490;23.506;2024-02-14T00:38:15;-8.70;99.90
3478;DHT22;37937;61.490;23.506;2024-02-14T00:40:40;-8.70;99.90
3478;DHT22;37937;61.490;23.506;2024-02-14T00:43:06;-8.70;99.90
3478;DHT22;37937;61.490;23.506;2024-02-14T00:45:31;-8.70;99.90
3478;DHT22;37937;61.490;23.506;2024-02-14T00:47:57;-8.70;99.90
3478;DHT22;37937;61.490;23.506;2024-02-14T00:50:22;-8.70;99.90
3478;DHT22;37937;61.490;23.506;2024-02-14T00:52:48;-8.70;99.90
3478;DHT22;37937;61.490;23.506;2024-02-14T00:55:13;-8.60;99.90
3478;DHT22;37937;61.490;23.506;2024-02-14T00:57:39;-8.60;99.90
3478;DHT22;37937;61.490;23.506;2024-02-14T01:00:06;-8.60;99.90
3478;DHT22;37937;61.490;23.506;2024-02-14T01:02:31;-8.60;99.90
3478;DHT22;37937;61.490;23.506;2024-02-14T01:04:57;-8.70;99.90
3478;DHT22;37937;61.490;23.506;2024-02-14T01:07:23;-8.60;99.90
3478;DHT22;37937;61.490;23.506;2024-02-14T01:09:48;-8.60;99.90
3478;DHT22;37937;61.490;23.506;2024-02-14T01:12:15;-8.60;99.90
3478;DHT22;37937;61.490;23.506;2024-02-14T01:14:41;-8.60;99.90
3478;DHT22;37937;61.490;23.506;2024-02-14T01:17:07;-8.50;99.90
3478;DHT22;37937;61.490;23.506;2024-02-14T01:19:33;-8.60;99.90
3478;DHT22;37937;61.490;23.506;2024-02-14T01:21:59;-8.60;99.90
3478;DHT22;37937;61.490;23.506;2024-02-14T01:24:24;-8.60;99.90
3478;DHT22;37937;61.490;23.506;2024-02-14T01:26:53;-8.50;99.90
3478;DHT22;37937;61.490;23.506;2024-02-14T01:29:20;-8.50;99.90
3478;DHT22;37937;61.490;23.506;2024-02-14T01:31:46;-8.50;99.90
3478;DHT22;37937;61.490;23.506;2024-02-14T01:34:11;-8.50;99.90
3478;DHT22;37937;61.490;23.506;2024-02-14T01:36:37;-8.50;99.90
3478;DHT22;37937;61.490;23.506;2024-02-14T01:39:04;-8.50;99.90
3478;DHT22;37937;61.490;23.506;2024-02-14T01:41:37;-8.50;99.90
3478;DHT22;37937;61.490;23.506;2024-02-14T01:44:02;-8.40;99.90
3478;DHT22;37937;61.490;23.506;2024-02-14T01:46:28;-8.40;99.90
3478;DHT22;37937;61.490;23.506;2024-02-14T01:48:53;-8.40;99.90
3478;DHT22;37937;61.490;23.506;2024-02-14T01:51:20;-8.40;99.90
3478;DHT22;37937;61.490;23.506;2024-02-14T01:53:49;-8.40;99.90
3478;DHT22;37937;61.490;23.506;2024-02-14T01:56:15;-8.40;99.90
3478;DHT22;37937;61.490;23.506;2024-02-14T01:58:41;-8.20;99.90
3478;DHT22;37937;61.490;23.506;2024-02-14T02:01:08;-8.40;99.90
3478;DHT22;37937;61.490;23.506;2024-02-14T02:03:35;-8.40;99.90
3478;DHT22;37937;61.490;23.506;2024-02-14T02:06:03;-8.40;99.90
3478;DHT22;37937;61.490;23.506;2024-02-14T02:08:28;-8.40;99.90
3478;DHT22;37937;61.490;23.506;2024-02-14T02:10:54;-8.40;99.90
3478;DHT22;37937;61.490;23.506;2024-02-14T02:13:20;-8.40;99.90
3478;DHT22;37937;61.490;23.506;2024-02-14T02:15:46;-8.40;99.90
3478;DHT22;37937;61.490;23.506;2024-02-14T02:18:12;-8.40;99.90
3478;DHT22;37937;61.490;23.506;2024-02-14T02:20:38;-8.40;99.90
3478;DHT22;37937;61.490;23.506;2024-02-14T02:23:04;-8.30;99.90
3478;DHT22;37937;61.490;23.506;2024-02-14T02:25:30;-8.30;99.90
3478;DHT22;37937;61.490;23.506;2024-02-14T02:27:55;-8.30;99.90
3478;DHT22;37937;61.490;23.506;2024-02-14T02:30:25;-8.30;99.90
3478;DHT22;37937;61.490;23.506;2024-02-14T02:32:50;-8.20;99.90
3478;DHT22;37937;61.490;23.506;2024-02-14T02:35:16;-8.20;99.90
3478;DHT22;37937;61.490;23.506;2024-02-14T02:37:45;-8.20;99.90
3478;DHT22;37937;61.490;23.506;2024-02-14T02:40:11;-8.20;99.90
3478;DHT22;37937;61.490;23.506;2024-02-14T02:42:38;-8.20;99.90
3478;DHT22;37937;61.490;23.506;2024-02-14T02:45:03;-8.20;99.90
3478;DHT22;37937;61.490;23.506;2024-02-14T02:47:31;-8.10;99.90
3478;DHT22;37937;61.490;23.506;2024-02-14T02:49:56;-8.10;99.90
3478;DHT22;37937;61.490;23.506;2024-02-14T02:52:22;-8.10;99.90
3478;DHT22;37937;61.490;23.506;2024-02-14T02:54:48;-7.90;99.90
3478;DHT22;37937;61.490;23.506;2024-02-14T02:57:14;-8.10;99.90
3478;DHT22;37937;61.490;23.506;2024-02-14T02:59:40;-8.10;99.90
3478;DHT22;37937;61.490;23.506;2024-02-14T03:02:10;-8.10;99.90
3478;DHT22;37937;61.490;23.506;2024-02-14T03:04:37;-8.10;99.90
3478;DHT22;37937;61.490;23.506;2024-02-14T03:07:03;-8.00;99.90
3478;DHT22;37937;61.490;23.506;2024-02-14T03:09:34;-8.00;99.90
3478;DHT22;37937;61.490;23.506;2024-02-14T03:12:01;-8.00;99.90
3478;DHT22;37937;61.490;23.506;2024-02-14T03:14:31;-8.00;99.90
3478;DHT22;37937;61.490;23.506;2024-02-14T03:16:59;-8.00;99.90
3478;DHT22;37937;61.490;23.506;2024-02-14T03:19:25;-8.00;99.90
3478;DHT22;37937;61.490;23.506;2024-02-14T03:21:52;-8.00;99.90
3478;DHT22;37937;61.490;23.506;2024-02-14T03:24:18;-8.00;99.90
3478;DHT22;37937;61.490;23.506;2024-02-14T03:26:43;-8.00;99.90
3478;DHT22;37937;61.490;23.506;2024-02-14T03:29:09;-8.00;99.90
3478;DHT22;37937;61.490;23.506;2024-02-14T03:31:35;-7.90;99.90
3478;DHT22;37937;61.490;23.506;2024-02-14T03:34:01;-7.90;99.90
3478;DHT22;37937;61.490;23.506;2024-02-14T03:36:27;-7.90;99.90
3478;DHT22;37937;61.490;23.506;2024-02-14T03:38:55;-7.90;99.90
3478;DHT22;37937;61.490;23.506;2024-02-14T03:41:21;-7.90;99.90
3478;DHT22;37937;61.490;23.506;2024-02-14T03:43:46;-7.80;99.90
3478;DHT22;37937;61.490;23.506;2024-02-14T03:46:12;-7.80;99.90
3478;DHT22;37937;61.490;23.506;2024-02-14T03:48:38;-7.80;99.90
3478;DHT22;37937;61.490;23.506;2024-02-14T03:51:06;-7.80;99.90
3478;DHT22;37937;61.490;23.506;2024-02-14T03:53:31;-7.70;99.90
3478;DHT22;37937;61.490;23.506;2024-02-14T03:55:58;-7.70;99.90
3478;DHT22;37937;61.490;23.506;2024-02-14T03:58:24;-7.80;99.90
3478;DHT22;37937;61.490;23.506;2024-02-14T04:00:49;-7.70;99.90
3478;DHT22;37937;61.490;23.506;2024-02-14T04:03:16;-7.70;99.90
3478;DHT22;37937;61.490;23.506;2024-02-14T04:05:42;-7.70;99.90
3478;DHT22;37937;61.490;23.506;2024-02-14T04:08:07;-7.70;99.90
3478;DHT22;37937;61.490;23.506;2024-02-14T04:10:35;-7.70;99.90
3478;DHT22;37937;61.490;23.506;2024-02-14T04:13:02;-7.70;99.90
3478;DHT22;37937;61.490;23.506;2024-02-14T04:15:28;-7.70;99.90
3478;DHT22;37937;61.490;23.506;2024-02-14T04:17:53;-7.70;99.90
3478;DHT22;37937;61.490;23.506;2024-02-14T04:20:19;-7.70;99.90
3478;DHT22;37937;61.490;23.506;2024-02-14T04:22:44;-7.70;99.90
3478;DHT22;37937;61.490;23.506;2024-02-14T04:25:10;-7.70;99.90
3478;DHT22;37937;61.490;23.506;2024-02-14T04:27:35;-7.70;99.90
3478;DHT22;37937;61.490;23.506;2024-02-14T04:30:01;-7.70;99.90
3478;DHT22;37937;61.490;23.506;2024-02-14T04:32:27;-7.60;99.90
3478;DHT22;37937;61.490;23.506;2024-02-14T04:34:53;-7.70;99.90
3478;DHT22;37937;61.490;23.506;2024-02-14T04:37:18;-7.60;99.90
3478;DHT22;37937;61.490;23.506;2024-02-14T04:39:45;-7.60;99.90
3478;DHT22;37937;61.490;23.506;2024-02-14T04:42:10;-7.60;99.90
3478;DHT22;37937;61.490;23.506;2024-02-14T04:44:36;-7.60;99.90
3478;DHT22;37937;61.490;23.506;2024-02-14T04:47:01;-7.60;99.90
3478;DHT22;37937;61.490;23.506;2024-02-14T04:49:27;-7.60;99.90
3478;DHT22;37937;61.490;23.506;2024-02-14T04:51:54;-7.50;99.90
3478;DHT22;37937;61.490;23.506;2024-02-14T04:54:20;-7.50;99.90
3478;DHT22;37937;61.490;23.506;2024-02-14T04:56:45;-7.50;99.90
3478;DHT22;37937;61.490;23.506;2024-02-14T04:59:11;-7.50;99.90
3478;DHT22;37937;61.490;23.506;2024-02-14T05:01:37;-7.50;99.90
3478;DHT22;37937;61.490;23.506;2024-02-14T05:04:03;-7.20;99.90
3478;DHT22;37937;61.490;23.506;2024-02-14T05:06:29;-7.50;99.90
3478;DHT22;37937;61.490;23.506;2024-02-14T05:08:55;-7.40;99.90
3478;DHT22;37937;61.490;23.506;2024-02-14T05:11:20;-7.40;99.90
3478;DHT22;37937;61.490;23.506;2024-02-14T05:13:47;-7.40;99.90
3478;DHT22;37937;61.490;23.506;2024-02-14T05:16:12;-7.40;99.90
3478;DHT22;37937;61.490;23.506;2024-02-14T05:18:38;-7.40;99.90
3478;DHT22;37937;61.490;23.506;2024-02-14T05:21:07;-7.50;99.90
3478;DHT22;37937;61.490;23.506;2024-02-14T05:23:33;-7.50;99.90
3478;DHT22;37937;61.490;23.506;2024-02-14T05:25:59;-7.40;99.90
3478;DHT22;37937;61.490;23.506;2024-02-14T05:28:25;-7.20;99.90
3478;DHT22;37937;61.490;23.506;2024-02-14T05:30:51;-7.40;99.90
3478;DHT22;37937;61.490;23.506;2024-02-14T05:33:16;-7.40;99.90
3478;DHT22;37937;61.490;23.506;2024-02-14T05:35:43;-7.30;99.90
3478;DHT22;37937;61.490;23.506;2024-02-14T05:38:09;-7.40;99.90
3478;DHT22;37937;61.490;23.506;2024-02-14T05:40:35;-7.30;99.90
3478;DHT22;37937;61.490;23.506;2024-02-14T05:43:03;-7.30;99.90
3478;DHT22;37937;61.490;23.506;2024-02-14T05:45:28;-7.30;99.90
3478;DHT22;37937;61.490;23.506;2024-02-14T05:47:54;-7.30;99.90
3478;DHT22;37937;61.490;23.506;2024-02-14T05:50:19;-7.30;99.90
3478;DHT22;37937;61.490;23.506;2024-02-14T05:52:45;-7.30;99.90
3478;DHT22;37937;61.490;23.506;2024-02-14T05:55:11;-7.30;99.90
3478;DHT22;37937;61.490;23.506;2024-02-14T05:57:36;-7.30;99.90
3478;DHT22;37937;61.490;23.506;2024-02-14T06:00:02;-7.30;99.90
3478;DHT22;37937;61.490;23.506;2024-02-14T06:02:28;-7.30;99.90
3478;DHT22;37937;61.490;23.506;2024-02-14T06:04:54;-7.30;99.90
3478;DHT22;37937;61.490;23.506;2024-02-14T06:07:20;-7.30;99.90
3478;DHT22;37937;61.490;23.506;2024-02-14T06:09:45;-7.20;99.90
3478;DHT22;37937;61.490;23.506;2024-02-14T06:12:11;-7.30;99.90
3478;DHT22;37937;61.490;23.506;2024-02-14T06:14:36;-7.30;99.90
3478;DHT22;37937;61.490;23.506;2024-02-14T06:17:02;-7.30;99.90
3478;DHT22;37937;61.490;23.506;2024-02-14T06:19:27;-7.30;99.90
3478;DHT22;37937;61.490;23.506;2024-02-14T06:21:53;-7.40;99.90
3478;DHT22;37937;61.490;23.506;2024-02-14T06:24:19;-7.30;99.90
3478;DHT22;37937;61.490;23.506;2024-02-14T06:26:47;-7.30;99.90
3478;DHT22;37937;61.490;23.506;2024-02-14T06:29:13;-7.30;99.90
3478;DHT22;37937;61.490;23.506;2024-02-14T06:31:38;-7.40;99.90
3478;DHT22;37937;61.490;23.506;2024-02-14T06:34:04;-7.40;99.90
3478;DHT22;37937;61.490;23.506;2024-02-14T06:36:32;-7.30;99.90
3478;DHT22;37937;61.490;23.506;2024-02-14T06:38:57;-7.10;99.90
3478;DHT22;37937;61.490;23.506;2024-02-14T06:41:23;-7.30;99.90
3478;DHT22;37937;61.490;23.506;2024-02-14T06:43:49;-7.30;99.90
3478;DHT22;37937;61.490;23.506;2024-02-14T06:46:14;-7.30;99.90
3478;DHT22;37937;61.490;23.506;2024-02-14T06:48:40;-7.20;99.90
3478;DHT22;37937;61.490;23.506;2024-02-14T06:51:06;-7.20;99.90
3478;DHT22;37937;61.490;23.506;2024-02-14T06:53:32;-7.20;99.90
3478;DHT22;37937;61.490;23.506;2024-02-14T06:55:57;-7.20;99.90
3478;DHT22;37937;61.490;23.506;2024-02-14T06:58:23;-7.20;99.90
3478;DHT22;37937;61.490;23.506;2024-02-14T07:00:48;-7.10;99.90
3478;DHT22;37937;61.490;23.506;2024-02-14T07:03:15;-7.10;99.90
3478;DHT22;37937;61.490;23.506;2024-02-14T07:05:40;-7.10;99.90
3478;DHT22;37937;61.490;23.506;2024-02-14T07:08:07;-7.10;99.90
3478;DHT22;37937;61.490;23.506;2024-02-14T07:10:32;-7.10;99.90
3478;DHT22;37937;61.490;23.506;2024-02-14T07:12:58;-7.10;99.90
3478;DHT22;37937;61.490;23.506;2024-02-14T07:15:24;-7.10;99.90
3478;DHT22;37937;61.490;23.506;2024-02-14T07:17:54;-7.00;99.90
3478;DHT22;37937;61.490;23.506;2024-02-14T07:20:20;-7.00;99.90
3478;DHT22;37937;61.490;23.506;2024-02-14T07:22:46;-6.90;99.90
3478;DHT22;37937;61.490;23.506;2024-02-14T07:25:13;-6.80;99.90
3478;DHT22;37937;61.490;23.506;2024-02-14T07:27:39;-6.90;99.90
3478;DHT22;37937;61.490;23.506;2024-02-14T07:30:05;-6.80;99.90
3478;DHT22;37937;61.490;23.506;2024-02-14T07:32:31;-6.80;99.90
3478;DHT22;37937;61.490;23.506;2024-02-14T07:34:56;-6.80;99.90
3478;DHT22;37937;61.490;23.506;2024-02-14T07:37:22;-6.70;99.90
3478;DHT22;37937;61.490;23.506;2024-02-14T07:39:47;-6.30;99.90
3478;DHT22;37937;61.490;23.506;2024-02-14T07:42:13;-6.60;99.90
3478;DHT22;37937;61.490;23.506;2024-02-14T07:44:39;-6.60;99.90
3478;DHT22;37937;61.490;23.506;2024-02-14T07:47:04;-6.60;99.90
3478;DHT22;37937;61.490;23.506;2024-02-14T07:49:30;-6.60;99.90
3478;DHT22;37937;61.490;23.506;2024-02-14T07:51:55;-6.60;99.90
3478;DHT22;37937;61.490;23.506;2024-02-14T07:54:21;-6.50;99.90
3478;DHT22;37937;61.490;23.506;2024-02-14T07:56:46;-6.50;99.90
3478;DHT22;37937;61.490;23.506;2024-02-14T07:59:12;-6.40;99.90
3478;DHT22;37937;61.490;23.506;2024-02-14T08:01:38;-6.40;99.90
3478;DHT22;37937;61.490;23.506;2024-02-14T08:04:03;-6.40;99.90
3478;DHT22;37937;61.490;23.506;2024-02-14T08:06:30;-6.40;99.90
3478;DHT22;37937;61.490;23.506;2024-02-14T08:08:55;-6.40;99.90
3478;DHT22;37937;61.490;23.506;2024-02-14T08:11:27;-6.30;99.90
3478;DHT22;37937;61.490;23.506;2024-02-14T08:13:52;-6.30;99.90
3478;DHT22;37937;61.490;23.506;2024-02-14T08:16:18;-6.30;99.90
3478;DHT22;37937;61.490;23.506;2024-02-14T08:18:43;-6.30;99.90
3478;DHT22;37937;61.490;23.506;2024-02-14T08:21:13;-6.30;99.90
3478;DHT22;37937;61.490;23.506;2024-02-14T08:23:39;-6.30;99.90
3478;DHT22;37937;61.490;23.506;2024-02-14T08:26:07;-6.30;99.90
3478;DHT22;37937;61.490;23.506;2024-02-14T08:28:36;-6.20;99.90
3478;DHT22;37937;61.490;23.506;2024-02-14T08:31:01;-6.20;99.90
3478;DHT22;37937;61.490;23.506;2024-02-14T08:33:27;-6.20;99.90
3478;DHT22;37937;61.490;23.506;2024-02-14T08:35:52;-5.80;99.90
3478;DHT22;37937;61.490;23.506;2024-02-14T08:38:22;-6.00;99.90
3478;DHT22;37937;61.490;23.506;2024-02-14T08:40:48;-6.10;99.90
3478;DHT22;37937;61.490;23.506;2024-02-14T08:43:13;-6.00;99.90
3478;DHT22;37937;61.490;23.506;2024-02-14T08:45:39;-5.90;99.90
3478;DHT22;37937;61.490;23.506;2024-02-14T08:48:06;-5.90;99.90
3478;DHT22;37937;61.490;23.506;2024-02-14T08:50:31;-5.80;99.90
3478;DHT22;37937;61.490;23.506;2024-02-14T08:52:57;-5.90;99.90
3478;DHT22;37937;61.490;23.506;2024-02-14T08:55:23;-5.90;99.90
3478;DHT22;37937;61.490;23.506;2024-02-14T08:57:48;-5.90;99.90
3478;DHT22;37937;61.490;23.506;2024-02-14T09:00:14;-5.80;99.90
3478;DHT22;37937;61.490;23.506;2024-02-14T09:02:45;-5.70;99.90
3478;DHT22;37937;61.490;23.506;2024-02-14T09:05:11;-5.60;99.90
3478;DHT22;37937;61.490;23.506;2024-02-14T09:07:36;-5.70;99.90
3478;DHT22;37937;61.490;23.506;2024-02-14T09:10:02;-5.40;99.90
3478;DHT22;37937;61.490;23.506;2024-02-14T09:12:28;-5.60;99.90
3478;DHT22;37937;61.490;23.506;2024-02-14T09:14:53;-5.50;99.90
3478;DHT22;37937;61.490;23.506;2024-02-14T09:17:19;-5.60;99.90
3478;DHT22;37937;61.490;23.506;2024-02-14T09:19:44;-5.60;99.90
3478;DHT22;37937;61.490;23.506;2024-02-14T09:22:10;-5.60;99.90
3478;DHT22;37937;61.490;23.506;2024-02-14T09:24:36;-5.50;99.90
3478;DHT22;37937;61.490;23.506;2024-02-14T09:27:01;-5.40;99.90
3478;DHT22;37937;61.490;23.506;2024-02-14T09:29:28;-5.40;99.90
3478;DHT22;37937;61.490;23.506;2024-02-14T09:31:53;-5.20;99.90
3478;DHT22;37937;61.490;23.506;2024-02-14T09:34:19;-5.20;99.90
3478;DHT22;37937;61.490;23.506;2024-02-14T09:36:47;-5.00;99.90
3478;DHT22;37937;61.490;23.506;2024-02-14T09:39:14;-5.10;99.90
3478;DHT22;37937;61.490;23.506;2024-02-14T09:41:42;-4.90;99.90
3478;DHT22;37937;61.490;23.506;2024-02-14T09:44:09;-5.00;99.90
3478;DHT22;37937;61.490;23.506;2024-02-14T09:46:35;-4.90;99.90
3478;DHT22;37937;61.490;23.506;2024-02-14T09:49:01;-4.90;99.90
3478;DHT22;37937;61.490;23.506;2024-02-14T09:51:28;-4.90;99.90
3478;DHT22;37937;61.490;23.506;2024-02-14T09:53:54;-4.90;99.90
3478;DHT22;37937;61.490;23.506;2024-02-14T09:56:20;-4.80;99.90
3478;DHT22;37937;61.490;23.506;2024-02-14T09:58:48;-4.70;99.90
3478;DHT22;37937;61.490;23.506;2024-02-14T10:01:20;-4.30;99.90
3478;DHT22;37937;61.490;23.506;2024-02-14T10:03:52;-4.40;99.90
3478;DHT22;37937;61.490;23.506;2024-02-14T10:06:18;-4.60;99.90
3478;DHT22;37937;61.490;23.506;2024-02-14T10:08:48;-4.30;99.90
3478;DHT22;37937;61.490;23.506;2024-02-14T10:11:19;-4.40;99.90
3478;DHT22;37937;61.490;23.506;2024-02-14T10:13:48;-4.30;99.90
3478;DHT22;37937;61.490;23.506;2024-02-14T10:16:15;-4.30;99.90
3478;DHT22;37937;61.490;23.506;2024-02-14T10:18:41;-4.40;99.90
3478;DHT22;37937;61.490;23.506;2024-02-14T10:21:08;-4.30;99.90
3478;DHT22;37937;61.490;23.506;2024-02-14T10:23:33;-4.30;99.90
3478;DHT22;37937;61.490;23.506;2024-02-14T10:25:59;-4.30;99.90
3478;DHT22;37937;61.490;23.506;2024-02-14T10:28:25;-4.20;99.90
3478;DHT22;37937;61.490;23.506;2024-02-14T10:30:51;-4.10;99.90
3478;DHT22;37937;61.490;23.506;2024-02-14T10:33:19;-4.00;99.90
3478;DHT22;37937;61.490;23.506;2024-02-14T10:35:45;-4.10;99.90
3478;DHT22;37937;61.490;23.506;2024-02-14T10:38:12;-4.10;99.90
3478;DHT22;37937;61.490;23.506;2024-02-14T10:40:39;-3.90;99.90
3478;DHT22;37937;61.490;23.506;2024-02-14T10:43:05;-4.00;99.90
3478;DHT22;37937;61.490;23.506;2024-02-14T10:45:31;-4.10;99.90
3478;DHT22;37937;61.490;23.506;2024-02-14T10:47:58;-4.10;99.90
3478;DHT22;37937;61.490;23.506;2024-02-14T10:50:25;-4.00;99.90
3478;DHT22;37937;61.490;23.506;2024-02-14T10:52:53;-4.10;99.90
3478;DHT22;37937;61.490;23.506;2024-02-14T10:55:22;-4.10;99.90
3478;DHT22;37937;61.490;23.506;2024-02-14T10:57:53;-4.00;99.90
3478;DHT22;37937;61.490;23.506;2024-02-14T11:00:20;-4.10;99.90
3478;DHT22;37937;61.490;23.506;2024-02-14T11:02:45;-4.00;99.90
3478;DHT22;37937;61.490;23.506;2024-02-14T11:05:15;-4.10;99.90
3478;DHT22;37937;61.490;23.506;2024-02-14T11:07:45;-4.10;99.90
3478;DHT22;37937;61.490;23.506;2024-02-14T11:10:13;-4.00;99.90
3478;DHT22;37937;61.490;23.506;2024-02-14T11:12:39;-4.00;99.90
3478;DHT22;37937;61.490;23.506;2024-02-14T11:15:21;-4.00;99.90
3478;DHT22;37937;61.490;23.506;2024-02-14T11:17:47;-4.10;99.90
3478;DHT22;37937;61.490;23.506;2024-02-14T11:20:20;-4.00;99.90
3478;DHT22;37937;61.490;23.506;2024-02-14T11:22:56;-4.00;99.90
3478;DHT22;37937;61.490;23.506;2024-02-14T11:25:23;-3.90;99.90
3478;DHT22;37937;61.490;23.506;2024-02-14T11:27:49;-3.80;99.90
3478;DHT22;37937;61.490;23.506;2024-02-14T11:30:26;-4.00;99.90
3478;DHT22;37937;61.490;23.506;2024-02-14T11:32:52;-3.90;99.90
3478;DHT22;37937;61.490;23.506;2024-02-14T11:35:18;-3.80;99.90
3478;DHT22;37937;61.490;23.506;2024-02-14T11:37:50;-3.90;99.90
3478;DHT22;37937;61.490;23.506;2024-02-14T11:40:18;-3.90;99.90
3478;DHT22;37937;61.490;23.506;2024-02-14T11:42:44;-3.80;99.90
3478;DHT22;37937;61.490;23.506;2024-02-14T11:45:13;-3.80;99.90
3478;DHT22;37937;61.490;23.506;2024-02-14T11:47:38;-3.70;99.90
3478;DHT22;37937;61.490;23.506;2024-02-14T11:50:05;-3.90;99.90
3478;DHT22;37937;61.490;23.506;2024-02-14T11:52:31;-3.90;99.90
3478;DHT22;37937;61.490;23.506;2024-02-14T11:54:56;-3.80;99.90
3478;DHT22;37937;61.490;23.506;2024-02-14T11:57:25;-3.90;99.90
3478;DHT22;37937;61.490;23.506;2024-02-14T11:59:52;-3.90;99.90
3478;DHT22;37937;61.490;23.506;2024-02-14T12:02:19;-3.80;99.90
3478;DHT22;37937;61.490;23.506;2024-02-14T12:04:45;-3.90;99.90
3478;DHT22;37937;61.490;23.506;2024-02-14T12:07:11;-4.00;99.90
3478;DHT22;37937;61.490;23.506;2024-02-14T12:09:36;-4.00;99.90
3478;DHT22;37937;61.490;23.506;2024-02-14T12:12:02;-4.00;99.90
3478;DHT22;37937;61.490;23.506;2024-02-14T12:14:27;-3.90;99.90
3478;DHT22;37937;61.490;23.506;2024-02-14T12:17:01;-3.90;99.90
3478;DHT22;37937;61.490;23.506;2024-02-14T12:19:32;-3.90;99.90
3478;DHT22;37937;61.490;23.506;2024-02-14T12:21:59;-3.80;99.90
3478;DHT22;37937;61.490;23.506;2024-02-14T12:24:27;-3.80;99.90
3478;DHT22;37937;61.490;23.506;2024-02-14T12:26:53;-3.80;99.90
3478;DHT22;37937;61.490;23.506;2024-02-14T12:29:18;-3.80;99.90
3478;DHT22;37937;61.490;23.506;2024-02-14T12:31:44;-3.80;99.90
3478;DHT22;37937;61.490;23.506;2024-02-14T12:34:10;-3.80;99.90
3478;DHT22;37937;61.490;23.506;2024-02-14T12:36:36;-3.70;99.90
3478;DHT22;37937;61.490;23.506;2024-02-14T12:39:02;-3.80;99.90
3478;DHT22;37937;61.490;23.506;2024-02-14T12:41:28;-3.70;99.90
3478;DHT22;37937;61.490;23.506;2024-02-14T12:43:55;-3.70;99.90
3478;DHT22;37937;61.490;23.506;2024-02-14T12:46:21;-3.80;99.90
3478;DHT22;37937;61.490;23.506;2024-02-14T12:48:46;-3.80;99.90
3478;DHT22;37937;61.490;23.506;2024-02-14T12:51:13;-3.80;99.90
3478;DHT22;37937;61.490;23.506;2024-02-14T12:53:39;-3.80;99.90
3478;DHT22;37937;61.490;23.506;2024-02-14T12:56:05;-3.80;99.90
3478;DHT22;37937;61.490;23.506;2024-02-14T12:58:32;-3.80;99.90
3478;DHT22;37937;61.490;23.506;2024-02-14T13:00:58;-3.70;99.90
3478;DHT22;37937;61.490;23.506;2024-02-14T13:03:27;-3.70;99.90
3478;DHT22;37937;61.490;23.506;2024-02-14T13:05:53;-3.80;99.90
3478;DHT22;37937;61.490;23.506;2024-02-14T13:08:19;-3.90;99.90
3478;DHT22;37937;61.490;23.506;2024-02-14T13:10:45;-3.90;99.90
3478;DHT22;37937;61.490;23.506;2024-02-14T13:13:11;-3.90;99.90
3478;DHT22;37937;61.490;23.506;2024-02-14T13:15:37;-4.00;99.90
3478;DHT22;37937;61.490;23.506;2024-02-14T13:18:03;-4.00;99.90
3478;DHT22;37937;61.490;23.506;2024-02-14T13:20:28;-4.00;99.90
3478;DHT22;37937;61.490;23.506;2024-02-14T13:22:54;-3.90;99.90
3478;DHT22;37937;61.490;23.506;2024-02-14T13:25:20;-4.00;99.90
3478;DHT22;37937;61.490;23.506;2024-02-14T13:27:46;-4.00;99.90
3478;DHT22;37937;61.490;23.506;2024-02-14T13:30:12;-3.90;99.90
3478;DHT22;37937;61.490;23.506;2024-02-14T13:32:37;-3.90;99.90
3478;DHT22;37937;61.490;23.506;2024-02-14T13:35:03;-3.90;99.90
3478;DHT22;37937;61.490;23.506;2024-02-14T13:37:31;-3.80;99.90
3478;DHT22;37937;61.490;23.506;2024-02-14T13:39:57;-3.80;99.90
3478;DHT22;37937;61.490;23.506;2024-02-14T13:42:22;-3.80;99.90
3478;DHT22;37937;61.490;23.506;2024-02-14T13:44:48;-3.80;99.90
3478;DHT22;37937;61.490;23.506;2024-02-14T13:47:14;-3.80;99.90
3478;DHT22;37937;61.490;23.506;2024-02-14T13:49:43;-3.70;99.90
3478;DHT22;37937;61.490;23.506;2024-02-14T13:52:09;-3.70;99.90
3478;DHT22;37937;61.490;23.506;2024-02-14T13:54:34;-3.80;99.90
3478;DHT22;37937;61.490;23.506;2024-02-14T13:57:00;-3.80;99.90
3478;DHT22;37937;61.490;23.506;2024-02-14T13:59:25;-3.80;99.90
3478;DHT22;37937;61.490;23.506;2024-02-14T14:01:51;-3.70;99.90
3478;DHT22;37937;61.490;23.506;2024-02-14T14:04:17;-3.80;99.90
3478;DHT22;37937;61.490;23.506;2024-02-14T14:06:42;-3.70;99.90
3478;DHT22;37937;61.490;23.506;2024-02-14T14:09:08;-3.80;99.90
3478;DHT22;37937;61.490;23.506;2024-02-14T14:11:35;-3.90;99.90
3478;DHT22;37937;61.490;23.506;2024-02-14T14:14:01;-3.90;99.90
3478;DHT22;37937;61.490;23.506;2024-02-14T14:16:26;-3.90;99.90
3478;DHT22;37937;61.490;23.506;2024-02-14T14:18:52;-3.90;99.90
3478;DHT22;37937;61.490;23.506;2024-02-14T14:21:17;-3.90;99.90
3478;DHT22;37937;61.490;23.506;2024-02-14T14:23:43;-3.80;99.90
3478;DHT22;37937;61.490;23.506;2024-02-14T14:26:09;-3.90;99.90
3478;DHT22;37937;61.490;23.506;2024-02-14T14:28:35;-4.00;99.90
3478;DHT22;37937;61.490;23.506;2024-02-14T14:31:01;-4.00;99.90
3478;DHT22;37937;61.490;23.506;2024-02-14T14:33:27;-4.00;99.90
3478;DHT22;37937;61.490;23.506;2024-02-14T14:35:52;-4.00;99.90
3478;DHT22;37937;61.490;23.506;2024-02-14T14:38:21;-4.00;99.90
3478;DHT22;37937;61.490;23.506;2024-02-14T14:40:47;-4.00;99.90
3478;DHT22;37937;61.490;23.506;2024-02-14T14:43:13;-4.00;99.90
3478;DHT22;37937;61.490;23.506;2024-02-14T14:45:39;-3.90;99.90
3478;DHT22;37937;61.490;23.506;2024-02-14T14:48:06;-4.00;99.90
3478;DHT22;37937;61.490;23.506;2024-02-14T14:50:34;-4.00;99.90
3478;DHT22;37937;61.490;23.506;2024-02-14T14:53:00;-4.00;99.90
3478;DHT22;37937;61.490;23.506;2024-02-14T14:55:27;-4.00;99.90
3478;DHT22;37937;61.490;23.506;2024-02-14T14:58:12;-4.00;99.90
3478;DHT22;37937;61.490;23.506;2024-02-14T15:00:37;-4.10;99.90
3478;DHT22;37937;61.490;23.506;2024-02-14T15:03:04;-4.10;99.90
3478;DHT22;37937;61.490;23.506;2024-02-14T15:05:29;-4.10;99.90
3478;DHT22;37937;61.490;23.506;2024-02-14T15:07:55;-4.20;99.90
3478;DHT22;37937;61.490;23.506;2024-02-14T15:10:21;-4.00;99.90
3478;DHT22;37937;61.490;23.506;2024-02-14T15:12:47;-4.00;99.90
3478;DHT22;37937;61.490;23.506;2024-02-14T15:15:13;-4.20;99.90
3478;DHT22;37937;61.490;23.506;2024-02-14T15:17:39;-4.20;99.90
3478;DHT22;37937;61.490;23.506;2024-02-14T15:20:05;-4.30;99.90
3478;DHT22;37937;61.490;23.506;2024-02-14T15:22:31;-4.30;99.90
3478;DHT22;37937;61.490;23.506;2024-02-14T15:24:57;-4.20;99.90